Havre-Saint-Pierre, Canada
Current Conditions -  °F | °C
As of 8:00 AM on Thursday 23 Oct 2014 (Local Time) from CYGV Reporting Station
Clear Clear  
Wind Chill: 25°   Ceiling: Unl
Heat Index: 25°   Visibility: 9mi
Dew Point: 25°   Wind: 3mph
Humidity: 100%   Direction: 30°NNE
Pressure: 30.38"   Gusts: NA
Location:  50.25°N, 63.58°W
Report Text: CYGV 231100Z AUTO 03003KT 9SM CLR M04/M04 A3038 RMK SLP291
Loading
Personal Weather Stations






























Interactive Weather Map
Tropical Storm Tracking
New forecast layout! Learn more

10-Day Weather Forecast

Advertisements
Track Severe Weather on mobile